YHBK weather

Holbrook Airport
New South Wales, Australia

Public forecast

Using degrees Celsius for public forecast. Weather courtesy of forecast.io.

METAR (pilot weather report)

Closest report is Albury Airport, 28.9 nm (53.6 km) SW. Retrieved 2019/03/21 05:00 UTC (13 minutes ago):

YMAY 210500Z AUTO 26006KT 9999 // NCD 34/11 Q1012

TAF (pilot weather forecast)

Forecast is more than 12 hours old.

Closest forecast is Wagga Wagga City Airport, 31.9 nm (59.2 km) NNE. Retrieved 2018/05/25 18:03 UTC (10 months ago):

TAF YSWG 251649Z 2518/2608 07008KT CAVOK